Time;durP1;ratioP1;P1;durP2;ratioP2;P2;SDS_P1;SDS_P2;PMS_P1;PMS_P2;Temp;Humidity;BMP_temperature;BMP_pressure;BME280_temperature;BME280_humidity;BME280_pressure;Samples;Min_cycle;Max_cycle;Signal;HPM_P1;HPM_P2
2022/05/16 00:01:07;;;;;;;11.88;5.18;;;11.00;99.90;;;;;;5063591;28;20017;-79
2022/05/16 00:03:33;;;;;;;10.40;5.18;;;10.90;99.90;;;;;;5078496;28;20012;-79
2022/05/16 00:05:59;;;;;;;10.98;5.43;;;10.90;99.90;;;;;;5078281;28;20025;-79
2022/05/16 00:08:25;;;;;;;11.13;4.80;;;11.00;99.90;;;;;;5078072;28;20572;-78
2022/05/16 00:10:50;;;;;;;11.73;4.78;;;11.00;99.90;;;;;;5076713;28;20088;-79
2022/05/16 00:13:16;;;;;;;12.20;6.10;;;11.00;99.90;;;;;;5076621;28;20044;-78
2022/05/16 00:15:41;;;;;;;13.52;5.15;;;10.90;99.90;;;;;;5076385;28;20024;-79
2022/05/16 00:18:07;;;;;;;9.48;4.93;;;11.00;99.90;;;;;;5075082;28;20097;-78
2022/05/16 00:20:33;;;;;;;10.27;5.43;;;11.00;99.90;;;;;;5076849;28;20031;-79
2022/05/16 00:22:59;;;;;;;11.30;4.93;;;11.00;99.90;;;;;;5076572;28;20068;-79
2022/05/16 00:25:32;;;;;;;11.38;4.85;;;11.00;99.90;;;;;;5065383;28;20021;-79
2022/05/16 00:27:57;;;;;;;13.32;5.55;;;10.90;99.90;;;;;;5074208;28;20045;-78
2022/05/16 00:30:24;;;;;;;11.70;5.35;;;10.90;99.90;;;;;;5060459;28;20028;-78
2022/05/16 00:32:50;;;;;;;11.45;5.50;;;10.90;99.90;;;;;;5056445;28;20143;-78
2022/05/16 00:35:18;;;;;;;9.25;4.80;;;10.90;99.90;;;;;;5074179;28;20017;-78
2022/05/16 00:37:44;;;;;;;11.70;5.22;;;11.00;99.90;;;;;;5074886;28;20032;-79
2022/05/16 00:40:11;;;;;;;10.65;5.00;;;11.00;99.90;;;;;;5076181;28;20027;-78
2022/05/16 00:42:37;;;;;;;9.23;5.80;;;11.00;99.90;;;;;;5065278;28;20039;-79
2022/05/16 00:45:04;;;;;;;10.85;5.20;;;10.90;99.90;;;;;;5057377;28;20025;-80
2022/05/16 00:47:30;;;;;;;10.50;5.43;;;11.00;99.90;;;;;;5065552;28;20017;-78
2022/05/16 00:49:56;;;;;;;11.00;5.18;;;10.90;99.90;;;;;;5059503;28;20380;-79
2022/05/16 00:52:27;;;;;;;9.25;5.30;;;11.00;99.90;;;;;;5076007;28;20033;-79
2022/05/16 00:55:37;;;;;;;11.90;5.72;;;11.00;99.90;;;;;;5076084;28;20029;-78
2022/05/16 00:58:12;;;;;;;9.15;5.20;;;11.00;99.90;;;;;;5037783;28;20052;-78
2022/05/16 01:00:39;;;;;;;12.23;5.63;;;10.90;99.90;;;;;;5054328;28;20060;-78
2022/05/16 01:06:08;;;;;;;7.70;4.93;;;10.90;99.90;;;;;;5053494;28;20086;-78
2022/05/16 01:08:43;;;;;;;9.27;5.38;;;10.90;99.90;;;;;;5052802;28;20040;-78
2022/05/16 01:11:13;;;;;;;10.60;6.07;;;10.90;99.90;;;;;;5054320;28;20029;-78
2022/05/16 01:13:39;;;;;;;9.82;5.03;;;11.00;99.90;;;;;;5054804;28;20056;-79
2022/05/16 01:16:05;;;;;;;11.65;5.95;;;10.90;99.90;;;;;;5053499;28;20036;-79
2022/05/16 01:18:30;;;;;;;11.13;5.60;;;11.00;99.90;;;;;;5052510;28;20025;-79
2022/05/16 01:21:17;;;;;;;13.00;5.57;;;11.00;99.90;;;;;;5052677;28;20021;-78
2022/05/16 01:24:07;;;;;;;10.77;5.05;;;10.90;99.90;;;;;;5055340;28;20711;-79
2022/05/16 01:26:33;;;;;;;8.70;5.45;;;10.90;99.90;;;;;;5062953;28;20019;-78
2022/05/16 01:29:00;;;;;;;8.77;5.05;;;10.80;99.90;;;;;;5060870;28;20353;-79
2022/05/16 01:31:25;;;;;;;8.48;4.50;;;10.80;99.90;;;;;;5054242;28;20025;-78
2022/05/16 01:33:51;;;;;;;11.35;5.50;;;10.80;99.90;;;;;;5065013;28;20063;-78
2022/05/16 01:36:17;;;;;;;9.38;5.63;;;10.80;99.90;;;;;;5072774;28;20017;-79
2022/05/16 01:38:49;;;;;;;12.48;5.38;;;10.80;99.90;;;;;;5073824;28;20025;-79
2022/05/16 01:41:17;;;;;;;9.90;5.57;;;10.80;99.90;;;;;;5074576;28;20084;-79
2022/05/16 01:43:54;;;;;;;8.02;5.20;;;10.80;99.90;;;;;;5073521;28;20081;-79
2022/05/16 01:46:23;;;;;;;12.73;5.93;;;10.80;99.90;;;;;;5073943;28;20032;-78
2022/05/16 01:48:49;;;;;;;13.43;5.82;;;10.80;99.90;;;;;;5073912;28;20043;-79
2022/05/16 01:51:15;;;;;;;11.05;5.35;;;10.80;99.90;;;;;;5074939;28;20021;-79
2022/05/16 01:53:43;;;;;;;14.73;5.80;;;10.90;99.90;;;;;;5072832;28;20150;-78
2022/05/16 01:56:09;;;;;;;15.00;5.95;;;10.80;99.90;;;;;;5071601;28;20021;-79
2022/05/16 01:58:35;;;;;;;9.68;6.05;;;10.80;99.90;;;;;;5073265;28;20040;-79
2022/05/16 02:01:02;;;;;;;11.30;5.45;;;10.70;99.90;;;;;;5073960;28;20048;-79
2022/05/16 02:03:38;;;;;;;11.93;5.28;;;10.70;99.90;;;;;;5073925;28;20108;-78
2022/05/16 02:06:04;;;;;;;9.25;5.70;;;10.50;99.90;;;;;;5053165;28;20029;-79
2022/05/16 02:08:29;;;;;;;11.00;6.20;;;10.50;99.90;;;;;;5073563;28;20017;-79
2022/05/16 02:10:55;;;;;;;11.68;5.63;;;10.60;99.90;;;;;;5074456;28;20021;-80
2022/05/16 02:13:20;;;;;;;14.13;5.57;;;10.60;99.90;;;;;;5074381;28;20029;-79
2022/05/16 02:15:46;;;;;;;13.52;5.68;;;10.60;99.90;;;;;;5074334;28;20029;-79
2022/05/16 02:18:12;;;;;;;11.82;5.72;;;10.50;99.90;;;;;;5072467;28;20039;-78
2022/05/16 02:20:38;;;;;;;9.80;5.60;;;10.50;99.90;;;;;;5074285;28;20029;-79
2022/05/16 02:25:51;;;;;;;10.50;4.97;;;10.40;99.90;;;;;;5074788;28;20037;-79
2022/05/16 02:28:18;;;;;;;10.75;5.68;;;10.30;99.90;;;;;;5075048;28;20013;-79
2022/05/16 02:30:45;;;;;;;9.27;5.07;;;10.40;99.90;;;;;;5075185;28;20020;-79
2022/05/16 02:33:13;;;;;;;9.48;4.88;;;10.40;99.90;;;;;;5071263;28;20036;-79
2022/05/16 02:35:39;;;;;;;12.60;5.70;;;10.30;99.90;;;;;;5072938;28;20029;-79
2022/05/16 02:38:06;;;;;;;12.38;5.25;;;10.50;99.90;;;;;;5072786;28;20052;-79
2022/05/16 02:40:33;;;;;;;8.27;5.50;;;10.40;99.90;;;;;;5073780;28;20050;-79
2022/05/16 02:42:59;;;;;;;12.07;5.03;;;10.50;99.90;;;;;;5074222;28;20025;-79
2022/05/16 02:45:26;;;;;;;9.55;4.93;;;10.40;99.90;;;;;;5074869;28;20027;-78
2022/05/16 02:47:51;;;;;;;10.70;5.47;;;10.40;99.90;;;;;;5074952;28;20048;-79
2022/05/16 02:50:19;;;;;;;9.82;5.18;;;10.40;99.90;;;;;;5074972;28;20024;-79
2022/05/16 02:52:44;;;;;;;12.55;5.05;;;10.40;99.90;;;;;;5074421;28;20096;-78
2022/05/16 02:55:10;;;;;;;9.20;5.32;;;10.50;99.90;;;;;;5074836;28;20021;-78
2022/05/16 02:57:36;;;;;;;6.90;4.57;;;10.70;99.90;;;;;;5074476;28;20033;-78
2022/05/16 03:00:08;;;;;;;9.63;4.78;;;10.70;99.90;;;;;;5074709;28;20350;-78
2022/05/16 03:02:34;;;;;;;7.90;4.72;;;10.80;99.90;;;;;;5073961;28;20012;-79
2022/05/16 03:04:59;;;;;;;11.48;4.22;;;10.80;99.90;;;;;;5073854;28;20055;-78
2022/05/16 03:07:25;;;;;;;9.73;5.07;;;10.90;99.90;;;;;;5073190;28;20369;-79
2022/05/16 03:09:50;;;;;;;9.52;5.22;;;10.90;99.90;;;;;;5074012;28;20039;-79
2022/05/16 03:12:16;;;;;;;10.48;5.10;;;11.00;99.90;;;;;;5074125;28;20080;-79
2022/05/16 03:14:42;;;;;;;10.57;4.97;;;10.90;99.90;;;;;;5073983;28;20033;-80
2022/05/16 03:17:07;;;;;;;8.88;4.28;;;10.80;99.90;;;;;;5073086;28;20056;-79
2022/05/16 03:19:35;;;;;;;12.10;5.18;;;10.80;99.90;;;;;;5073051;28;20036;-78
2022/05/16 03:22:02;;;;;;;7.93;4.65;;;10.80;99.90;;;;;;5073822;28;20053;-78
2022/05/16 03:24:27;;;;;;;10.23;4.90;;;10.70;99.90;;;;;;5078484;28;20023;-79
2022/05/16 03:26:53;;;;;;;7.38;4.32;;;10.70;99.90;;;;;;5077599;28;20053;-79
2022/05/16 03:29:18;;;;;;;8.65;4.53;;;10.70;99.90;;;;;;5078265;28;20044;-79
2022/05/16 03:31:44;;;;;;;9.05;4.57;;;10.80;99.90;;;;;;5078394;28;20033;-79
2022/05/16 03:34:11;;;;;;;12.07;4.80;;;10.70;99.90;;;;;;5062581;28;20060;-79
2022/05/16 03:36:38;;;;;;;9.43;4.55;;;10.70;99.90;;;;;;5056220;28;20023;-80
2022/05/16 03:41:49;;;;;;;8.70;4.25;;;10.80;99.90;;;;;;5059061;28;20025;-79
2022/05/16 03:44:15;;;;;;;8.95;4.30;;;10.80;99.90;;;;;;5059961;28;20017;-79
2022/05/16 03:46:41;;;;;;;7.72;3.97;;;10.80;99.90;;;;;;5059503;28;20025;-79
2022/05/16 03:49:06;;;;;;;11.50;4.30;;;10.70;99.90;;;;;;5058978;28;20001;-79
2022/05/16 03:51:32;;;;;;;6.88;4.15;;;10.70;99.90;;;;;;5056797;28;20029;-78
2022/05/16 03:53:58;;;;;;;9.85;4.90;;;10.90;99.90;;;;;;5055296;28;20041;-78
2022/05/16 03:56:27;;;;;;;6.80;3.95;;;11.00;99.90;;;;;;5056050;28;20032;-79
2022/05/16 03:58:53;;;;;;;9.57;4.57;;;11.10;99.90;;;;;;5055017;28;20091;-80
2022/05/16 04:01:19;;;;;;;10.55;4.88;;;11.20;99.90;;;;;;5054397;28;20029;-79
2022/05/16 04:03:45;;;;;;;6.45;3.97;;;11.30;87.10;;;;;;5070353;28;20021;-79
2022/05/16 04:06:13;;;;;;;9.43;4.38;;;11.40;74.40;;;;;;5076994;28;20036;-79
2022/05/16 04:08:39;;;;;;;7.00;3.92;;;11.40;65.20;;;;;;5079005;28;20017;-79
2022/05/16 04:11:05;;;;;;;8.13;4.00;;;11.50;54.10;;;;;;5077441;28;20020;-78
2022/05/16 04:13:32;;;;;;;9.43;4.55;;;11.50;47.90;;;;;;5079200;28;20021;-79
2022/05/16 04:15:58;;;;;;;7.22;3.60;;;11.60;39.70;;;;;;5078097;28;20033;-80
2022/05/16 04:18:24;;;;;;;7.93;4.03;;;11.70;32.40;;;;;;5077446;28;20056;-79
2022/05/16 04:20:49;;;;;;;8.57;4.10;;;11.70;27.50;;;;;;5078287;28;20031;-81
2022/05/16 04:23:15;;;;;;;7.68;4.30;;;11.90;11.60;;;;;;5077815;28;20150;-79
2022/05/16 04:25:41;;;;;;;8.68;4.15;;;11.90;15.00;;;;;;5068953;28;20078;-79
2022/05/16 04:28:08;;;;;;;5.10;3.42;;;11.90;10.20;;;;;;5071534;28;20013;-78
2022/05/16 04:30:34;;;;;;;6.65;3.53;;;12.00;1.00;;;;;;5069213;28;20029;-80
2022/05/16 04:33:00;;;;;;;6.55;3.22;;;12.10;1.00;;;;;;5072762;28;20067;-79
2022/05/16 04:35:26;;;;;;;7.53;3.75;;;12.10;1.00;;;;;;5070091;28;20032;-79
2022/05/16 04:37:52;;;;;;;5.80;3.58;;;12.40;1.00;;;;;;5073279;28;20022;-80
2022/05/16 04:40:19;;;;;;;10.77;3.58;;;13.70;1.00;;;;;;5067930;28;20013;-78
2022/05/16 04:42:44;;;;;;;8.32;3.88;;;13.60;1.00;;;;;;5065364;28;20075;-79
2022/05/16 04:45:19;;;;;;;10.00;3.88;;;12.60;1.00;;;;;;5058004;28;20025;-80
2022/05/16 04:47:47;;;;;;;6.10;3.22;;;12.50;1.00;;;;;;5066164;28;20115;-79
2022/05/16 04:50:16;;;;;;;5.45;3.42;;;12.50;1.00;;;;;;5066512;28;20036;-80
2022/05/16 04:52:42;;;;;;;4.53;3.33;;;12.50;1.00;;;;;;5064154;28;20029;-80
2022/05/16 04:55:08;;;;;;;8.35;3.75;;;12.60;1.00;;;;;;5064791;28;20029;-81
2022/05/16 04:57:35;;;;;;;7.05;3.63;;;12.70;1.00;;;;;;5068650;28;20040;-81
2022/05/16 05:00:01;;;;;;;8.02;3.13;;;13.20;1.00;;;;;;5065559;28;20480;-80
2022/05/16 05:02:26;;;;;;;6.25;3.55;;;15.10;1.00;;;;;;5046794;28;20029;-80
2022/05/16 05:04:52;;;;;;;5.38;3.08;;;15.20;99.90;;;;;;5063786;28;20041;-80
2022/05/16 05:07:17;;;;;;;7.88;3.58;;;14.00;1.00;;;;;;5065286;28;20081;-80
2022/05/16 05:15:14;;;;;;;4.57;2.85;;;13.20;1.00;;;;;;5065212;28;20028;-80
2022/05/16 05:17:41;;;;;;;5.70;3.28;;;13.80;1.00;;;;;;5063372;28;20024;-80
2022/05/16 05:20:12;;;;;;;7.70;3.40;;;13.20;1.00;;;;;;5066786;28;20021;-80
2022/05/16 05:22:42;;;;;;;5.53;3.28;;;13.20;1.00;;;;;;5067396;28;20441;-80
2022/05/16 05:25:15;;;;;;;4.70;3.03;;;13.00;1.00;;;;;;5069817;28;20040;-81
2022/05/16 05:27:42;;;;;;;6.93;3.15;;;13.00;1.00;;;;;;5068289;28;20028;-80
2022/05/16 05:30:14;;;;;;;7.72;3.38;;;13.30;1.00;;;;;;5067505;28;20060;-80
2022/05/16 05:32:39;;;;;;;5.55;3.40;;;15.30;99.90;;;;;;5063812;28;20033;-81
2022/05/16 05:35:06;;;;;;;6.82;3.40;;;17.40;99.90;;;;;;5056048;28;20085;-80
2022/05/16 05:37:32;;;;;;;8.07;3.15;;;18.80;99.90;;;;;;5052016;28;20021;-81
2022/05/16 05:40:00;;;;;;;6.10;3.00;;;19.20;99.90;;;;;;5046878;28;20108;-81
2022/05/16 05:42:26;;;;;;;3.92;2.90;;;19.00;99.90;;;;;;5061476;28;20029;-80
2022/05/16 05:44:52;;;;;;;6.90;2.95;;;19.40;99.90;;;;;;5061316;28;20059;-81
2022/05/16 05:47:18;;;;;;;8.45;2.90;;;21.00;99.90;;;;;;5058483;28;20014;-80
2022/05/16 05:49:44;;;;;;;5.20;3.00;;;22.00;99.90;;;;;;5054738;28;20044;-81
2022/05/16 05:52:09;;;;;;;4.25;2.95;;;20.70;99.90;;;;;;5038695;28;20113;-81
2022/05/16 05:54:35;;;;;;;5.63;3.00;;;22.90;99.90;;;;;;5036612;28;20554;-81
2022/05/16 05:57:02;;;;;;;6.25;2.50;;;23.10;99.90;;;;;;5056650;28;20385;-82
2022/05/16 05:59:28;;;;;;;5.53;2.80;;;23.00;99.90;;;;;;5038718;28;20017;-81
2022/05/16 06:01:53;;;;;;;6.70;2.80;;;24.40;99.90;;;;;;5055363;28;20043;-82
2022/05/16 06:04:19;;;;;;;7.93;3.08;;;23.10;99.90;;;;;;5054970;28;20040;-83
2022/05/16 06:06:46;;;;;;;13.30;3.38;;;22.00;99.90;;;;;;5055264;28;20025;-82
2022/05/16 06:09:12;;;;;;;4.55;2.75;;;22.50;99.90;;;;;;5056828;28;20032;-81
2022/05/16 06:11:38;;;;;;;4.30;2.72;;;20.60;99.90;;;;;;5056164;28;20021;-82
2022/05/16 06:14:03;;;;;;;5.68;3.03;;;20.00;99.90;;;;;;5054969;28;20029;-83
2022/05/16 06:16:29;;;;;;;4.97;2.70;;;22.20;99.90;;;;;;5054654;28;20077;-82
2022/05/16 06:18:54;;;;;;;5.22;2.85;;;23.50;99.90;;;;;;5055127;28;20029;-82
2022/05/16 06:21:20;;;;;;;6.32;3.10;;;22.80;99.90;;;;;;5054741;28;20036;-82
2022/05/16 06:23:45;;;;;;;6.68;3.10;;;25.30;99.90;;;;;;5054094;28;20138;-82
2022/05/16 06:26:11;;;;;;;5.95;3.13;;;23.10;99.90;;;;;;5054499;28;20029;-83
2022/05/16 06:28:40;;;;;;;6.95;2.97;;;23.70;99.90;;;;;;5054731;28;20013;-83
2022/05/16 06:31:06;;;;;;;7.50;3.17;;;24.60;99.90;;;;;;5054746;28;20032;-83
2022/05/16 06:33:33;;;;;;;8.45;3.28;;;26.30;99.90;;;;;;5054497;28;20029;-83
2022/05/16 06:35:59;;;;;;;7.63;3.17;;;25.70;99.90;;;;;;5054546;28;20056;-83
2022/05/16 06:38:28;;;;;;;5.85;2.88;;;25.60;99.90;;;;;;5054847;28;20028;-83
2022/05/16 06:40:55;;;;;;;6.83;3.00;;;23.40;99.90;;;;;;5054410;28;20368;-82
2022/05/16 06:43:35;;;;;;;5.28;2.88;;;26.50;99.90;;;;;;5052711;28;20023;-82
2022/05/16 06:46:02;;;;;;;5.82;3.05;;;25.80;99.90;;;;;;5041760;28;20025;-82
2022/05/16 06:48:28;;;;;;;5.38;2.83;;;23.90;99.90;;;;;;5053477;28;20088;-81
2022/05/16 06:50:55;;;;;;;5.68;2.92;;;24.10;99.90;;;;;;5054948;28;20465;-81
2022/05/16 06:53:26;;;;;;;5.32;2.85;;;25.90;99.90;;;;;;5052663;28;20110;-82
2022/05/16 06:55:52;;;;;;;8.43;3.20;;;25.70;99.90;;;;;;5055592;28;20070;-81
2022/05/16 06:58:18;;;;;;;8.48;3.33;;;26.20;99.90;;;;;;5057101;28;20112;-81
2022/05/16 07:00:44;;;;;;;8.98;3.28;;;25.70;99.90;;;;;;5060102;28;20070;-81
2022/05/16 07:03:10;;;;;;;4.90;2.67;;;27.70;99.90;;;;;;5059647;28;20085;-81
2022/05/16 07:05:38;;;;;;;5.75;3.10;;;27.70;99.90;;;;;;5059541;28;20021;-81
2022/05/16 07:08:04;;;;;;;5.78;3.20;;;29.40;99.90;;;;;;5055522;28;20026;-81
2022/05/16 07:10:31;;;;;;;6.63;3.58;;;29.60;99.90;;;;;;5039487;28;20433;-81
2022/05/16 07:12:57;;;;;;;4.93;3.08;;;28.80;99.90;;;;;;5038520;28;20036;-81
2022/05/16 07:15:23;;;;;;;7.57;3.40;;;28.90;99.90;;;;;;5038417;28;20034;-81
2022/05/16 07:17:48;;;;;;;6.03;3.00;;;28.00;99.90;;;;;;5043437;28;20116;-79
2022/05/16 07:20:17;;;;;;;5.22;2.88;;;27.10;99.90;;;;;;5063325;28;20025;-79
2022/05/16 07:22:45;;;;;;;7.30;2.90;;;29.00;99.90;;;;;;5059864;28;20060;-80
2022/05/16 07:25:12;;;;;;;4.85;2.97;;;27.70;99.90;;;;;;5060661;28;20037;-80
2022/05/16 07:27:56;;;;;;;5.40;3.15;;;28.40;99.90;;;;;;5063121;28;20048;-80
2022/05/16 07:30:24;;;;;;;4.65;3.10;;;31.00;99.90;;;;;;5051310;28;20033;-79
2022/05/16 07:32:51;;;;;;;7.63;3.40;;;28.00;99.90;;;;;;5064805;28;20473;-82
2022/05/16 07:35:19;;;;;;;6.57;3.05;;;28.80;99.90;;;;;;5057190;28;20022;-79
2022/05/16 07:37:45;;;;;;;4.50;2.88;;;29.90;99.90;;;;;;5048314;28;20459;-79
2022/05/16 07:40:13;;;;;;;5.10;2.80;;;28.70;99.90;;;;;;5060756;28;20021;-79
2022/05/16 07:42:39;;;;;;;5.63;2.83;;;28.10;99.90;;;;;;5044751;28;20029;-79
2022/05/16 07:45:06;;;;;;;6.00;3.17;;;27.90;99.90;;;;;;5054247;28;20062;-79
2022/05/16 07:47:32;;;;;;;6.97;2.90;;;30.20;99.90;;;;;;5051096;28;20049;-79
2022/05/16 07:49:59;;;;;;;10.73;3.40;;;28.70;99.90;;;;;;5061141;28;20017;-78
2022/05/16 07:52:25;;;;;;;6.07;3.47;;;27.30;99.90;;;;;;5059920;28;20118;-79
2022/05/16 07:54:51;;;;;;;5.78;3.00;;;27.50;99.90;;;;;;5059741;28;20033;-78
2022/05/16 07:57:17;;;;;;;5.78;2.95;;;27.80;99.90;;;;;;5057995;28;20021;-79
2022/05/16 07:59:43;;;;;;;7.68;3.28;;;29.50;99.90;;;;;;5057463;28;20087;-80
2022/05/16 08:02:09;;;;;;;10.45;3.60;;;29.90;99.90;;;;;;5057514;28;20072;-79
2022/05/16 08:04:35;;;;;;;6.53;2.97;;;29.50;99.90;;;;;;5056967;28;20025;-79
2022/05/16 08:07:04;;;;;;;6.35;3.40;;;29.60;99.90;;;;;;5056947;28;20071;-79
2022/05/16 08:12:22;;;;;;;7.65;3.28;;;31.70;99.90;;;;;;5057270;28;20082;-80
2022/05/16 08:14:48;;;;;;;5.82;2.95;;;31.80;99.90;;;;;;5056522;28;20048;-80
2022/05/16 08:17:13;;;;;;;6.65;3.30;;;32.50;99.90;;;;;;5055719;28;20029;-80
2022/05/16 08:19:39;;;;;;;6.18;3.08;;;31.90;99.90;;;;;;5056098;28;20036;-81
2022/05/16 08:22:04;;;;;;;5.63;3.10;;;34.30;99.90;;;;;;5054257;28;20045;-80
2022/05/16 08:24:30;;;;;;;5.30;3.25;;;32.50;99.90;;;;;;5055872;28;20040;-80
2022/05/16 08:26:55;;;;;;;7.10;3.35;;;30.30;99.90;;;;;;5055344;28;20028;-81
2022/05/16 08:29:21;;;;;;;5.43;3.10;;;30.20;99.90;;;;;;5055128;28;20036;-81
2022/05/16 08:31:46;;;;;;;7.88;2.80;;;32.70;99.90;;;;;;5055034;28;20044;-80
2022/05/16 08:34:12;;;;;;;6.63;3.15;;;35.80;99.90;;;;;;5055374;28;20075;-81
2022/05/16 08:42:09;;;;;;;6.28;2.97;;;37.00;99.90;;;;;;5039415;28;20036;-80
2022/05/16 08:44:45;;;;;;;6.40;3.33;;;38.10;99.90;;;;;;5035913;28;20325;-81
2022/05/16 08:47:19;;;;;;;5.43;3.10;;;36.80;99.90;;;;;;5035666;28;20043;-80
2022/05/16 08:49:47;;;;;;;9.43;3.30;;;34.50;99.90;;;;;;5041321;28;20033;-80
2022/05/16 08:52:25;;;;;;;5.95;2.92;;;34.40;99.90;;;;;;5055098;28;20403;-80
2022/05/16 08:55:05;;;;;;;5.83;2.80;;;35.10;99.90;;;;;;5055118;28;20021;-80
2022/05/16 08:57:40;;;;;;;5.97;2.90;;;33.70;99.90;;;;;;5054787;28;20101;-80
2022/05/16 09:00:11;;;;;;;4.63;2.65;;;34.90;99.90;;;;;;5054922;28;20025;-81
2022/05/16 09:02:40;;;;;;;8.20;3.53;;;32.60;99.90;;;;;;5051475;28;20029;-81
2022/05/16 09:05:26;;;;;;;4.82;2.90;;;32.30;99.90;;;;;;5037640;28;20013;-81
2022/05/16 09:07:54;;;;;;;5.78;3.25;;;31.20;99.90;;;;;;5037860;28;20025;-80
2022/05/16 09:10:23;;;;;;;5.25;2.97;;;34.00;99.90;;;;;;5051363;28;20021;-80
2022/05/16 09:12:56;;;;;;;6.55;3.47;;;35.20;99.90;;;;;;5044777;28;20376;-80
2022/05/16 09:15:30;;;;;;;7.35;3.58;;;32.50;99.90;;;;;;5054697;28;20036;-80
2022/05/16 09:18:33;;;;;;;7.35;3.22;;;31.30;99.90;;;;;;5035236;28;20028;-80
2022/05/16 09:21:08;;;;;;;7.22;3.30;;;29.90;99.90;;;;;;5035905;28;20013;-80
2022/05/16 09:23:54;;;;;;;5.78;3.35;;;29.40;99.90;;;;;;5040099;28;20132;-80
2022/05/16 09:26:47;;;;;;;6.50;3.65;;;30.10;99.90;;;;;;5039889;28;20032;-80
2022/05/16 09:29:32;;;;;;;6.43;3.40;;;30.20;99.90;;;;;;5034926;28;20021;-80
2022/05/16 09:32:27;;;;;;;6.43;3.42;;;29.70;99.90;;;;;;5034644;28;20654;-80
2022/05/16 09:34:53;;;;;;;7.22;3.15;;;28.50;99.90;;;;;;5034437;28;20100;-81
2022/05/16 09:37:20;;;;;;;6.75;3.30;;;28.10;99.90;;;;;;5034601;28;20079;-80
2022/05/16 09:39:45;;;;;;;6.20;3.00;;;27.80;99.90;;;;;;5035940;28;20128;-80
2022/05/16 09:42:20;;;;;;;8.85;3.90;;;28.30;99.90;;;;;;5054912;28;20116;-80
2022/05/16 09:44:54;;;;;;;7.40;3.35;;;28.30;99.90;;;;;;5037060;28;20025;-79
2022/05/16 09:47:36;;;;;;;6.47;3.10;;;28.60;99.90;;;;;;5037141;28;20112;-80
2022/05/16 09:50:20;;;;;;;8.50;3.58;;;28.40;99.90;;;;;;5055295;28;20342;-80
2022/05/16 09:53:07;;;;;;;3.92;3.05;;;27.30;99.90;;;;;;5055075;28;20393;-79
2022/05/16 09:55:58;;;;;;;9.00;3.53;;;27.20;99.90;;;;;;5055464;28;20079;-80
2022/05/16 09:59:00;;;;;;;8.15;3.72;;;26.90;99.90;;;;;;5054676;28;20023;-80
2022/05/16 10:01:38;;;;;;;7.40;3.65;;;26.80;99.90;;;;;;5032754;28;20341;-79
2022/05/16 10:04:12;;;;;;;8.25;4.13;;;27.20;99.90;;;;;;5054382;28;20059;-80
2022/05/16 10:06:41;;;;;;;7.00;3.92;;;26.60;99.90;;;;;;5053385;28;20475;-80
2022/05/16 10:09:14;;;;;;;6.22;3.90;;;27.40;99.90;;;;;;5056900;28;20063;-79
2022/05/16 10:11:43;;;;;;;8.35;4.15;;;27.80;99.90;;;;;;5056385;28;20660;-80
2022/05/16 10:14:09;;;;;;;11.27;4.15;;;27.30;99.90;;;;;;5049576;28;20068;-80
2022/05/16 10:16:39;;;;;;;6.25;3.90;;;27.50;99.90;;;;;;5042174;28;20452;-79
2022/05/16 10:19:07;;;;;;;12.55;4.50;;;27.40;99.90;;;;;;5058250;28;20021;-80
2022/05/16 10:21:39;;;;;;;9.17;4.40;;;28.10;99.90;;;;;;5058995;28;20041;-79
2022/05/16 10:24:08;;;;;;;8.90;4.15;;;28.20;99.90;;;;;;5058147;28;20105;-79
2022/05/16 10:26:39;;;;;;;9.52;4.40;;;28.10;99.90;;;;;;5037804;28;20087;-79
2022/05/16 10:29:09;;;;;;;7.68;4.40;;;28.20;99.90;;;;;;5053383;28;20025;-79
2022/05/16 10:34:55;;;;;;;9.30;4.72;;;27.60;99.90;;;;;;5027221;28;20059;-80
2022/05/16 10:37:21;;;;;;;10.25;4.53;;;30.90;99.90;;;;;;5055062;28;20078;-79
2022/05/16 10:39:53;;;;;;;8.10;4.43;;;33.60;99.90;;;;;;5049457;28;20092;-79
2022/05/16 10:42:27;;;;;;;7.97;4.55;;;33.90;99.90;;;;;;5046228;28;20392;-80
2022/05/16 10:44:56;;;;;;;11.50;5.00;;;34.20;99.90;;;;;;5041274;28;20029;-79
2022/05/16 10:47:29;;;;;;;;;;;33.60;99.90;;;;;;5046721;28;20059;-79
2022/05/16 10:50:06;;;;;;;10.05;5.22;;;37.50;99.90;;;;;;5038988;28;19905;-79
2022/05/16 10:52:42;;;;;;;7.25;4.35;;;39.20;99.90;;;;;;5055756;28;20025;-80
2022/05/16 10:55:08;;;;;;;9.88;5.45;;;38.50;99.90;;;;;;5036488;28;20025;-79
2022/05/16 10:58:02;;;;;;;9.55;5.00;;;38.30;99.90;;;;;;5042367;28;20028;-81
2022/05/16 11:00:49;;;;;;;7.35;5.38;;;36.20;99.90;;;;;;5035082;28;20036;-80
2022/05/16 11:03:34;;;;;;;9.70;5.07;;;34.60;99.90;;;;;;5054957;28;20452;-80
2022/05/16 11:06:30;;;;;;;7.13;5.50;;;34.10;99.90;;;;;;5055181;28;20025;-79
2022/05/16 11:09:19;;;;;;;8.95;5.38;;;34.70;99.90;;;;;;5056455;28;20029;-79
2022/05/16 11:11:57;;;;;;;9.80;5.22;;;34.10;99.90;;;;;;5056603;28;20029;-80
2022/05/16 11:14:47;;;;;;;9.45;5.22;;;32.70;99.90;;;;;;5055084;28;20486;-80
2022/05/16 11:17:32;;;;;;;8.93;5.28;;;32.40;99.90;;;;;;5055063;28;20026;-80
2022/05/16 11:20:09;;;;;;;6.75;5.13;;;32.30;99.90;;;;;;5055784;28;20024;-80
2022/05/16 11:22:42;;;;;;;9.35;5.00;;;32.00;99.90;;;;;;5057077;28;20128;-80
2022/05/16 11:25:23;;;;;;;7.80;5.43;;;32.30;99.90;;;;;;5054117;28;20025;-83
2022/05/16 11:28:20;;;;;;;9.98;4.97;;;31.80;99.90;;;;;;5053752;28;20017;-82
2022/05/16 11:30:58;;;;;;;7.95;5.28;;;31.70;99.90;;;;;;5025215;28;20033;-83
2022/05/16 11:33:46;;;;;;;13.55;5.68;;;32.60;99.90;;;;;;5034205;28;20099;-83
2022/05/16 11:36:25;;;;;;;10.10;5.65;;;32.30;99.90;;;;;;5034360;28;20025;-83
2022/05/16 11:39:07;;;;;;;9.52;5.55;;;31.50;99.90;;;;;;5035800;28;20489;-83
2022/05/16 11:42:16;;;;;;;10.30;5.50;;;31.50;99.90;;;;;;5037326;28;20855;-83
2022/05/16 11:44:56;;;;;;;11.00;5.30;;;31.70;99.90;;;;;;5039475;28;20029;-84
2022/05/16 11:47:32;;;;;;;7.85;5.70;;;32.10;99.90;;;;;;5040749;28;20036;-83
2022/05/16 11:50:15;;;;;;;8.32;6.00;;;32.00;99.90;;;;;;5042419;28;20137;-84
2022/05/16 11:53:29;;;;;;;12.52;6.10;;;31.90;99.90;;;;;;5047616;28;20036;-84
2022/05/16 12:01:34;;;;;;;;;;;31.40;99.90;;;;;;5058431;28;20094;-83
2022/05/16 12:04:20;;;;;;;8.52;6.85;;;31.40;99.90;;;;;;5056132;28;20348;-84
2022/05/16 12:06:53;;;;;;;10.57;8.18;;;31.30;99.90;;;;;;5056127;28;20166;-83
2022/05/16 12:09:51;;;;;;;10.98;8.15;;;31.10;99.90;;;;;;5056604;28;20100;-83
2022/05/16 12:12:31;;;;;;;9.15;7.45;;;31.20;99.90;;;;;;5042088;28;20159;-84
2022/05/16 12:15:24;;;;;;;10.57;7.72;;;31.10;99.90;;;;;;5056211;28;20017;-83
2022/05/16 12:17:50;;;;;;;14.25;8.00;;;31.40;99.90;;;;;;5056169;28;20029;-83
2022/05/16 12:20:16;;;;;;;9.35;7.72;;;31.90;99.90;;;;;;5055980;28;20021;-83
2022/05/16 12:22:45;;;;;;;11.27;8.68;;;32.40;99.90;;;;;;5054260;28;20458;-83
2022/05/16 12:25:26;;;;;;;11.52;9.88;;;31.40;99.90;;;;;;5039994;28;20028;-83
2022/05/16 12:28:13;;;;;;;13.27;9.45;;;31.60;99.90;;;;;;5038149;28;20070;-83
2022/05/16 12:30:48;;;;;;;10.93;9.52;;;32.20;99.90;;;;;;5048880;28;20051;-84
2022/05/16 12:33:25;;;;;;;15.45;9.85;;;31.80;99.90;;;;;;5053577;28;20506;-84
2022/05/16 12:35:53;;;;;;;14.32;9.20;;;31.40;99.90;;;;;;5035712;28;20026;-83
2022/05/16 12:38:21;;;;;;;9.52;7.88;;;30.80;99.90;;;;;;5036321;28;20013;-83
2022/05/16 12:41:07;;;;;;;9.90;6.75;;;31.00;99.90;;;;;;5036229;28;20041;-83
2022/05/16 12:44:06;;;;;;;10.23;7.20;;;31.00;99.90;;;;;;5036758;28;20013;-83
2022/05/16 12:47:04;;;;;;;8.98;7.85;;;30.40;99.90;;;;;;5037590;28;20120;-83
2022/05/16 12:50:06;;;;;;;7.82;7.03;;;30.90;99.90;;;;;;5035299;28;20405;-83
2022/05/16 12:52:53;;;;;;;10.10;7.60;;;31.40;99.90;;;;;;5036197;28;20039;-83
2022/05/16 12:55:31;;;;;;;9.73;6.43;;;31.00;99.90;;;;;;5034976;28;20032;-84
2022/05/16 12:58:08;;;;;;;11.13;7.20;;;30.80;99.90;;;;;;5035534;28;20091;-84
2022/05/16 13:00:46;;;;;;;13.30;7.95;;;30.30;99.90;;;;;;5035511;28;20025;-84
2022/05/16 13:03:22;;;;;;;8.95;7.00;;;29.60;99.90;;;;;;5017407;28;20017;-85
2022/05/16 13:06:00;;;;;;;9.45;6.88;;;29.70;99.90;;;;;;5035455;28;20028;-84
2022/05/16 13:08:36;;;;;;;8.30;6.40;;;29.70;99.90;;;;;;5036049;28;20020;-83
2022/05/16 13:11:26;;;;;;;10.45;6.43;;;29.80;99.90;;;;;;5036081;28;20086;-81
2022/05/16 13:14:25;;;;;;;9.02;6.10;;;29.70;99.90;;;;;;5041376;28;20046;-82
2022/05/16 13:16:55;;;;;;;6.18;5.53;;;29.80;99.90;;;;;;5037646;28;20052;-81
2022/05/16 13:19:23;;;;;;;;;;;29.70;99.90;;;;;;5049371;28;20029;-82
2022/05/16 13:21:54;;;;;;;11.82;8.32;;;29.00;99.90;;;;;;5049461;28;19912;-81
2022/05/16 13:24:21;;;;;;;13.23;8.60;;;29.00;99.90;;;;;;5054766;28;20044;-81
2022/05/16 13:29:40;;;;;;;13.32;8.73;;;27.90;99.90;;;;;;5049290;28;20032;-81
2022/05/16 13:32:12;;;;;;;13.80;8.63;;;27.80;99.90;;;;;;5056748;28;20052;-81
2022/05/16 13:34:46;;;;;;;11.77;7.25;;;27.90;99.90;;;;;;5036977;28;20029;-81
2022/05/16 13:37:16;;;;;;;12.18;8.07;;;27.70;99.90;;;;;;5039740;28;20018;-81
2022/05/16 13:39:43;;;;;;;10.85;7.50;;;27.70;99.90;;;;;;5051179;28;20035;-81